createdAt,value
2018-03-08T00:00:35.379Z,97.50
2018-03-08T00:03:02.905Z,97.10
2018-03-08T00:05:30.432Z,96.90
2018-03-08T00:07:57.992Z,97.10
2018-03-08T00:10:25.519Z,97.00
2018-03-08T00:12:53.822Z,97.20
2018-03-08T00:15:21.380Z,97.10
2018-03-08T00:17:48.908Z,97.00
2018-03-08T00:20:16.435Z,97.10
2018-03-08T00:22:44.039Z,97.20
2018-03-08T00:25:12.340Z,97.40
2018-03-08T00:27:40.395Z,97.70
2018-03-08T00:30:08.715Z,97.60
2018-03-08T00:32:36.252Z,97.60
2018-03-08T00:35:03.788Z,97.60
2018-03-08T00:37:32.127Z,98.00
2018-03-08T00:39:59.660Z,98.00
2018-03-08T00:42:27.191Z,98.00
2018-03-08T00:44:55.419Z,98.00
2018-03-08T00:47:22.948Z,98.00
2018-03-08T00:49:50.497Z,98.10
2018-03-08T00:52:18.060Z,98.10
2018-03-08T00:54:45.599Z,97.90
2018-03-08T00:57:15.320Z,97.70
2018-03-08T00:59:42.870Z,97.80
2018-03-08T01:02:10.399Z,97.90
2018-03-08T01:04:37.937Z,98.00
2018-03-08T01:07:06.043Z,97.90
2018-03-08T01:09:33.575Z,97.90
2018-03-08T01:12:01.107Z,98.10
2018-03-08T01:14:28.660Z,98.20
2018-03-08T01:16:56.199Z,98.40
2018-03-08T01:19:24.496Z,98.70
2018-03-08T01:21:52.061Z,98.70
2018-03-08T01:24:19.588Z,98.90
2018-03-08T01:26:47.878Z,98.90
2018-03-08T01:29:17.896Z,98.90
2018-03-08T01:31:45.439Z,98.80
2018-03-08T01:34:14.539Z,98.60
2018-03-08T01:36:42.096Z,98.60
2018-03-08T01:39:09.628Z,98.60
2018-03-08T01:41:37.156Z,98.60
2018-03-08T01:44:04.708Z,98.60
2018-03-08T01:46:32.240Z,98.50
2018-03-08T01:49:00.543Z,98.50
2018-03-08T01:51:28.412Z,98.50
2018-03-08T01:53:55.955Z,98.50
2018-03-08T01:56:24.257Z,98.40
2018-03-08T01:58:51.816Z,98.40
2018-03-08T02:01:19.344Z,98.20
2018-03-08T02:03:46.871Z,98.30
2018-03-08T02:06:15.580Z,98.40
2018-03-08T02:08:43.112Z,98.30
2018-03-08T02:11:10.635Z,98.40
2018-03-08T02:13:38.247Z,98.30
2018-03-08T02:16:05.778Z,98.10
2018-03-08T02:18:33.312Z,98.00
2018-03-08T02:21:00.881Z,98.00
2018-03-08T02:23:28.407Z,97.80
2018-03-08T02:25:56.695Z,97.70
2018-03-08T02:28:24.247Z,97.70
2018-03-08T02:30:53.245Z,97.60
2018-03-08T02:33:20.774Z,97.60
2018-03-08T02:35:48.832Z,97.40
2018-03-08T02:38:16.480Z,97.40
2018-03-08T02:40:44.024Z,97.30
2018-03-08T02:43:11.588Z,97.40
2018-03-08T02:45:39.116Z,97.40
2018-03-08T02:48:06.639Z,97.10
2018-03-08T02:50:34.192Z,97.40
2018-03-08T02:53:01.726Z,97.40
2018-03-08T02:55:29.250Z,97.60
2018-03-08T02:57:57.185Z,97.70
2018-03-08T03:00:24.718Z,97.90
2018-03-08T03:02:52.243Z,97.90
2018-03-08T03:05:20.574Z,97.90
2018-03-08T03:07:48.105Z,97.90
2018-03-08T03:10:16.507Z,97.80
2018-03-08T03:12:44.068Z,97.70
2018-03-08T03:15:11.592Z,97.80
2018-03-08T03:17:39.127Z,97.70
2018-03-08T03:20:07.884Z,97.60
2018-03-08T03:22:35.412Z,97.70
2018-03-08T03:25:02.948Z,97.70
2018-03-08T03:27:31.271Z,97.70
2018-03-08T03:29:58.810Z,97.70
2018-03-08T03:32:26.747Z,97.70
2018-03-08T03:34:55.075Z,97.60
2018-03-08T03:37:22.607Z,97.60
2018-03-08T03:39:50.135Z,97.60
2018-03-08T03:42:19.091Z,97.50
2018-03-08T03:44:46.615Z,97.30
2018-03-08T03:47:15.516Z,97.10
2018-03-08T03:49:43.108Z,97.20
2018-03-08T03:52:10.635Z,97.10
2018-03-08T03:54:38.168Z,97.10
2018-03-08T03:57:06.513Z,96.80
2018-03-08T03:59:34.047Z,96.80
2018-03-08T04:02:01.575Z,96.60
2018-03-08T04:04:29.374Z,96.50
2018-03-08T04:06:56.892Z,96.60
2018-03-08T04:09:24.414Z,96.70
2018-03-08T04:11:51.955Z,96.80
2018-03-08T04:14:19.501Z,97.20
2018-03-08T04:16:47.040Z,97.10
2018-03-08T04:19:16.414Z,97.20
2018-03-08T04:21:43.939Z,97.30
2018-03-08T04:24:11.464Z,97.20
2018-03-08T04:26:39.471Z,97.30
2018-03-08T04:29:06.996Z,97.60
2018-03-08T04:31:34.525Z,97.70
2018-03-08T04:34:03.043Z,97.90
2018-03-08T04:36:30.578Z,98.00
2018-03-08T04:38:58.993Z,98.00
2018-03-08T04:41:26.554Z,98.00
2018-03-08T04:43:54.140Z,98.00
2018-03-08T04:46:21.669Z,98.10
2018-03-08T04:48:49.523Z,98.30
2018-03-08T04:51:17.054Z,98.30
2018-03-08T04:53:44.585Z,98.40
2018-03-08T04:56:12.150Z,98.70
2018-03-08T04:58:39.677Z,98.90
2018-03-08T05:01:07.200Z,99.10
2018-03-08T05:03:34.760Z,99.50
2018-03-08T05:06:03.054Z,99.70
2018-03-08T05:08:30.588Z,99.60
2018-03-08T05:10:58.467Z,99.70
2018-03-08T05:13:26.003Z,99.90
2018-03-08T05:15:53.541Z,99.90
2018-03-08T05:18:21.305Z,99.90
2018-03-08T05:20:48.831Z,99.90
2018-03-08T05:23:16.432Z,99.90
2018-03-08T05:25:44.003Z,99.90
2018-03-08T05:28:11.541Z,99.90
2018-03-08T05:30:39.072Z,99.90
2018-03-08T05:33:06.972Z,99.90
2018-03-08T05:35:35.429Z,99.90
2018-03-08T05:38:02.965Z,99.90
2018-03-08T05:40:30.522Z,99.90
2018-03-08T05:42:58.897Z,99.90
2018-03-08T05:45:26.428Z,99.90
2018-03-08T05:47:53.983Z,99.90
2018-03-08T05:50:21.513Z,99.80
2018-03-08T05:52:49.046Z,99.70
2018-03-08T05:55:16.638Z,99.70
2018-03-08T05:57:44.167Z,99.50
2018-03-08T06:00:11.708Z,99.50
2018-03-08T06:02:39.263Z,99.40
2018-03-08T06:05:07.555Z,99.70
2018-03-08T06:07:35.087Z,99.40
2018-03-08T06:10:02.651Z,99.20
2018-03-08T06:12:30.188Z,99.20
2018-03-08T06:14:57.724Z,99.30
2018-03-08T06:17:25.819Z,99.20
2018-03-08T06:19:53.355Z,99.00
2018-03-08T06:22:20.963Z,99.10
2018-03-08T06:24:48.548Z,98.90
2018-03-08T06:27:16.399Z,99.00
2018-03-08T06:29:43.956Z,98.80
2018-03-08T06:32:11.531Z,98.90
2018-03-08T06:34:39.828Z,98.80
2018-03-08T06:37:08.184Z,98.70
2018-03-08T06:39:36.562Z,98.20
2018-03-08T06:42:04.094Z,98.20
2018-03-08T06:44:31.619Z,98.20
2018-03-08T06:46:59.172Z,98.20
2018-03-08T06:49:26.700Z,97.80
2018-03-08T06:51:54.223Z,97.90
2018-03-08T06:54:21.771Z,97.90
2018-03-08T06:56:49.299Z,97.70
2018-03-08T06:59:16.824Z,97.70
2018-03-08T07:01:44.964Z,97.30
2018-03-08T07:04:12.492Z,97.20
2018-03-08T07:06:40.039Z,97.00
2018-03-08T07:09:07.647Z,97.10
2018-03-08T07:11:35.206Z,96.60
2018-03-08T07:14:02.761Z,96.20
2018-03-08T07:16:30.395Z,96.50
2018-03-08T07:18:57.923Z,96.40
2018-03-08T07:21:25.451Z,95.80
2018-03-08T07:23:53.317Z,96.10
2018-03-08T07:26:21.615Z,95.60
2018-03-08T07:28:49.149Z,95.60
2018-03-08T07:31:17.498Z,96.10
2018-03-08T07:33:45.048Z,96.10
2018-03-08T07:36:14.308Z,95.40
2018-03-08T07:38:42.616Z,95.40
2018-03-08T07:41:10.152Z,95.20
2018-03-08T07:43:37.692Z,93.80
2018-03-08T07:46:05.616Z,91.80
2018-03-08T07:48:33.160Z,87.70
2018-03-08T07:51:00.690Z,82.60
2018-03-08T07:53:28.255Z,76.00
2018-03-08T07:55:55.814Z,70.30
2018-03-08T07:58:23.343Z,70.40
2018-03-08T08:00:50.908Z,68.50
2018-03-08T08:03:18.435Z,72.10
2018-03-08T08:05:58.229Z,66.80
2018-03-08T08:08:38.368Z,58.30
2018-03-08T08:11:05.948Z,58.20
2018-03-08T08:13:33.488Z,56.70
2018-03-08T08:16:01.028Z,51.40
2018-03-08T08:18:28.597Z,48.70
2018-03-08T08:20:56.187Z,49.90
2018-03-08T08:23:23.701Z,48.30
2018-03-08T08:25:51.978Z,47.70
2018-03-08T08:28:19.633Z,46.20
2018-03-08T08:30:47.175Z,43.70
2018-03-08T08:33:15.538Z,40.50
2018-03-08T08:35:43.075Z,38.20
2018-03-08T08:38:11.493Z,39.60
2018-03-08T08:40:39.885Z,39.50
2018-03-08T08:43:07.419Z,39.30
2018-03-08T08:45:34.960Z,39.10
2018-03-08T08:48:02.854Z,41.20
2018-03-08T08:50:30.440Z,41.40
2018-03-08T08:52:57.979Z,42.20
2018-03-08T08:55:25.549Z,39.60
2018-03-08T08:57:53.159Z,39.90
2018-03-08T09:00:21.467Z,36.40
2018-03-08T09:02:49.037Z,36.40
2018-03-08T09:05:17.396Z,35.90
2018-03-08T09:07:44.941Z,35.90
2018-03-08T09:10:14.768Z,35.80
2018-03-08T09:12:42.316Z,35.80
2018-03-08T09:15:10.700Z,36.60
2018-03-08T09:17:38.240Z,36.60
2018-03-08T09:20:05.825Z,35.80
2018-03-08T09:22:33.376Z,33.50
2018-03-08T09:25:00.952Z,32.00
2018-03-08T09:27:28.496Z,33.30
2018-03-08T09:29:56.032Z,33.40
2018-03-08T09:32:23.651Z,33.70
2018-03-08T09:34:51.216Z,30.70
2018-03-08T09:37:18.751Z,30.70
2018-03-08T09:39:46.676Z,32.30
2018-03-08T09:42:26.936Z,30.40
2018-03-08T09:54:30.063Z,30.40
2018-03-08T09:56:57.644Z,30.10
2018-03-08T09:59:25.220Z,32.20
2018-03-08T10:01:52.771Z,31.40
2018-03-08T10:04:20.332Z,30.50
2018-03-08T10:06:47.940Z,32.40
2018-03-08T10:09:16.475Z,33.30
2018-03-08T10:11:44.020Z,30.80
2018-03-08T10:14:11.561Z,31.60
2018-03-08T10:16:39.821Z,31.20
2018-03-08T10:19:07.372Z,31.30
2018-03-08T10:21:45.149Z,31.30
2018-03-08T10:24:02.596Z,32.40
2018-03-08T10:26:30.188Z,33.20
2018-03-08T10:28:57.968Z,34.90
2018-03-08T10:31:25.532Z,37.90
2018-03-08T10:33:53.067Z,39.60
2018-03-08T10:36:20.679Z,39.80
2018-03-08T10:38:48.552Z,41.00
2018-03-08T10:41:16.592Z,42.50
2018-03-08T10:43:44.704Z,43.40
2018-03-08T10:46:12.264Z,44.10
2018-03-08T10:48:39.885Z,47.00
2018-03-08T10:51:07.757Z,46.00
2018-03-08T10:53:35.332Z,46.30
2018-03-08T10:56:02.871Z,45.40
2018-03-08T10:58:30.417Z,46.30
2018-03-08T11:00:58.695Z,47.40
2018-03-08T11:03:31.908Z,45.10
2018-03-08T11:05:59.491Z,45.20
2018-03-08T11:08:27.821Z,46.70
2018-03-08T11:10:55.372Z,46.70
2018-03-08T11:13:22.964Z,47.00
2018-03-08T11:15:50.518Z,43.10
2018-03-08T11:18:18.058Z,44.00
2018-03-08T11:20:46.344Z,45.60
2018-03-08T11:23:25.208Z,44.90
2018-03-08T11:28:11.281Z,44.30
2018-03-08T11:30:38.820Z,45.20
2018-03-08T11:33:07.140Z,44.70
2018-03-08T11:35:34.714Z,45.40
2018-03-08T11:38:02.251Z,46.00
2018-03-08T11:40:29.796Z,46.00
2018-03-08T11:42:57.576Z,46.90
2018-03-08T11:45:25.775Z,45.20
2018-03-08T11:47:54.070Z,48.40
2018-03-08T11:50:21.853Z,48.40
2018-03-08T11:52:49.230Z,48.60
2018-03-08T11:55:16.800Z,49.60
2018-03-08T11:57:44.361Z,50.20
2018-03-08T12:00:11.934Z,50.20
2018-03-08T12:02:39.799Z,50.00
2018-03-08T12:05:07.680Z,51.50
2018-03-08T12:07:36.009Z,55.00
2018-03-08T12:10:03.577Z,54.90
2018-03-08T12:12:31.187Z,52.00
2018-03-08T12:14:58.960Z,52.70
2018-03-08T12:17:26.491Z,56.60
2018-03-08T12:19:54.059Z,58.70
2018-03-08T12:22:21.627Z,56.00
2018-03-08T12:24:49.164Z,53.80
2018-03-08T12:27:17.020Z,54.30
2018-03-08T12:29:44.766Z,53.10
2018-03-08T12:32:12.352Z,50.60
2018-03-08T12:34:39.944Z,50.80
2018-03-08T12:37:08.258Z,49.00
2018-03-08T12:39:35.853Z,48.80
2018-03-08T12:42:03.395Z,47.10
2018-03-08T12:44:30.959Z,49.00
2018-03-08T12:46:59.136Z,49.80
2018-03-08T12:49:27.108Z,49.00
2018-03-08T12:51:55.898Z,47.20
2018-03-08T12:54:23.431Z,47.50
2018-03-08T12:56:50.997Z,45.90
2018-03-08T12:59:18.546Z,47.90
2018-03-08T13:01:46.088Z,46.10
2018-03-08T13:04:27.753Z,42.90
2018-03-08T13:09:59.600Z,39.80
2018-03-08T13:12:27.139Z,46.80
2018-03-08T13:14:54.684Z,48.40
2018-03-08T13:17:22.243Z,48.50
2018-03-08T13:19:49.784Z,48.50
2018-03-08T13:22:18.133Z,46.70
2018-03-08T13:24:45.752Z,46.60
2018-03-08T13:27:30.236Z,44.80
2018-03-08T13:35:58.004Z,44.80
2018-03-08T13:38:25.592Z,47.40
2018-03-08T13:40:53.137Z,44.00
2018-03-08T13:43:20.756Z,45.30
2018-03-08T13:45:48.296Z,41.60
2018-03-08T13:48:17.484Z,43.90
2018-03-08T13:50:45.085Z,44.50
2018-03-08T13:53:14.377Z,43.90
2018-03-08T13:55:41.976Z,43.90
2018-03-08T13:58:09.883Z,43.20
2018-03-08T14:00:37.415Z,41.00
2018-03-08T14:03:05.299Z,40.80
2018-03-08T14:05:32.880Z,41.50
2018-03-08T14:08:00.424Z,40.00
2018-03-08T14:10:28.129Z,39.90
2018-03-08T14:12:55.904Z,39.60
2018-03-08T14:15:23.445Z,40.90
2018-03-08T14:17:51.030Z,39.60
2018-03-08T14:20:18.885Z,38.90
2018-03-08T14:22:46.549Z,38.70
2018-03-08T14:25:16.782Z,41.50
2018-03-08T14:27:44.362Z,41.60
2018-03-08T14:30:12.108Z,39.90
2018-03-08T14:32:39.645Z,38.30
2018-03-08T14:35:07.211Z,37.00
2018-03-08T14:37:35.589Z,38.70
2018-03-08T14:40:04.075Z,37.60
2018-03-08T14:42:31.714Z,37.60
2018-03-08T14:45:00.112Z,41.20
2018-03-08T14:47:28.931Z,40.00
2018-03-08T14:49:57.306Z,40.00
2018-03-08T14:52:24.952Z,40.40
2018-03-08T14:54:53.701Z,39.80
2018-03-08T14:57:21.300Z,36.80
2018-03-08T14:59:48.856Z,37.10
2018-03-08T15:02:36.078Z,39.50
2018-03-08T15:05:03.645Z,40.20
2018-03-08T15:07:32.892Z,40.00
2018-03-08T15:10:00.472Z,39.20
2018-03-08T15:12:30.918Z,38.30
2018-03-08T15:15:02.995Z,38.30
2018-03-08T15:17:30.557Z,38.80
2018-03-08T15:19:58.114Z,39.30
2018-03-08T15:22:25.769Z,41.80
2018-03-08T15:24:53.325Z,41.70
2018-03-08T15:27:20.888Z,40.10
2018-03-08T15:29:48.451Z,38.40
2018-03-08T15:32:16.420Z,39.50
2018-03-08T15:34:44.679Z,40.20
2018-03-08T15:37:12.261Z,38.70
2018-03-08T15:39:40.581Z,39.30
2018-03-08T15:42:08.813Z,39.40
2018-03-08T15:44:36.447Z,38.80
2018-03-08T15:47:04.767Z,38.60
2018-03-08T15:49:32.354Z,38.30
2018-03-08T15:52:00.821Z,38.60
2018-03-08T15:54:28.389Z,39.20
2018-03-08T15:56:58.976Z,39.10
2018-03-08T15:59:28.085Z,38.90
2018-03-08T16:01:55.937Z,38.90
2018-03-08T16:04:23.497Z,39.10
2018-03-08T16:10:31.657Z,38.60
2018-03-08T16:12:59.261Z,39.60
2018-03-08T16:15:26.816Z,42.00
2018-03-08T16:17:54.378Z,41.40
2018-03-08T16:20:21.966Z,41.60
2018-03-08T16:22:49.533Z,41.40
2018-03-08T16:25:17.134Z,40.90
2018-03-08T16:27:49.262Z,41.50
2018-03-08T16:30:16.831Z,41.30
2018-03-08T16:32:44.399Z,42.80
2018-03-08T16:35:12.005Z,43.70
2018-03-08T16:37:39.573Z,42.50
2018-03-08T16:40:09.651Z,41.90
2018-03-08T16:42:37.232Z,43.10
2018-03-08T16:45:04.829Z,43.30
2018-03-08T16:47:32.477Z,44.40
2018-03-08T16:50:00.491Z,44.80
2018-03-08T16:52:29.228Z,43.70
2018-03-08T16:54:56.785Z,43.60
2018-03-08T16:57:24.394Z,44.70
2018-03-08T16:59:51.983Z,46.30
2018-03-08T17:02:19.543Z,47.20
2018-03-08T17:04:47.158Z,48.30
2018-03-08T17:07:16.296Z,51.90
2018-03-08T17:09:48.467Z,51.50
2018-03-08T17:12:16.509Z,51.50
2018-03-08T17:14:44.125Z,51.10
2018-03-08T17:17:11.693Z,49.60
2018-03-08T17:19:40.048Z,48.30
2018-03-08T17:22:07.608Z,48.20
2018-03-08T17:24:35.157Z,48.70
2018-03-08T17:27:02.729Z,48.50
2018-03-08T17:29:30.265Z,48.60
2018-03-08T17:31:57.948Z,48.50
2018-03-08T17:34:25.569Z,49.70
2018-03-08T17:36:53.116Z,49.70
2018-03-08T17:39:20.647Z,50.60
2018-03-08T17:41:48.220Z,50.70
2018-03-08T17:44:16.383Z,51.10
2018-03-08T17:46:43.925Z,52.30
2018-03-08T17:49:11.485Z,52.60
2018-03-08T17:51:39.010Z,53.30
2018-03-08T17:54:06.740Z,54.00
2018-03-08T17:56:34.541Z,54.00
2018-03-08T17:59:02.088Z,54.50
2018-03-08T18:01:29.643Z,55.10
2018-03-08T18:03:57.976Z,55.80
2018-03-08T18:06:25.521Z,55.80
2018-03-08T18:08:53.062Z,57.20
2018-03-08T18:11:20.659Z,57.40
2018-03-08T18:13:48.265Z,58.30
2018-03-08T18:16:16.437Z,59.00
2018-03-08T18:18:44.321Z,59.40
2018-03-08T18:21:11.860Z,60.10
2018-03-08T18:23:39.570Z,59.70
2018-03-08T18:26:07.132Z,59.80
2018-03-08T18:28:34.777Z,59.70
2018-03-08T18:31:02.396Z,60.20
2018-03-08T18:33:30.739Z,60.80
2018-03-08T18:35:58.379Z,60.60
2018-03-08T18:38:25.940Z,60.80
2018-03-08T18:40:54.076Z,61.50
2018-03-08T18:43:21.611Z,62.30
2018-03-08T18:45:49.169Z,64.00
2018-03-08T18:48:16.796Z,64.20
2018-03-08T18:50:44.375Z,64.50
2018-03-08T18:53:11.912Z,64.50
2018-03-08T18:55:41.144Z,64.90
2018-03-08T18:58:20.535Z,65.00
2018-03-08T19:00:49.460Z,65.20
2018-03-08T19:03:16.991Z,65.70
2018-03-08T19:05:44.514Z,66.20
2018-03-08T19:08:12.072Z,66.60
2018-03-08T19:10:39.777Z,66.60
2018-03-08T19:13:07.328Z,67.10
2018-03-08T19:15:35.132Z,67.70
2018-03-08T19:18:02.676Z,68.80
2018-03-08T19:20:30.220Z,69.40
2018-03-08T19:22:58.116Z,69.50
2018-03-08T19:25:25.831Z,69.60
2018-03-08T19:27:53.388Z,69.50
2018-03-08T19:30:21.760Z,70.10
2018-03-08T19:32:49.295Z,70.10
2018-03-08T19:35:16.980Z,70.50
2018-03-08T19:37:45.315Z,71.80
2018-03-08T19:40:15.012Z,71.70
2018-03-08T19:42:42.565Z,72.10
2018-03-08T19:45:10.140Z,72.20
2018-03-08T19:47:37.796Z,73.00
2018-03-08T19:50:05.332Z,73.20
2018-03-08T19:52:32.968Z,73.40
2018-03-08T19:55:00.526Z,73.50
2018-03-08T19:57:29.889Z,73.60
2018-03-08T19:59:57.480Z,73.80
2018-03-08T20:02:25.052Z,74.20
2018-03-08T20:04:53.356Z,74.70
2018-03-08T20:07:21.523Z,74.60
2018-03-08T20:09:49.239Z,74.70
2018-03-08T20:12:16.794Z,74.90
2018-03-08T20:14:46.841Z,74.90
2018-03-08T20:17:26.365Z,75.00
2018-03-08T20:22:11.496Z,75.10
2018-03-08T20:24:39.027Z,75.10
2018-03-08T20:27:07.333Z,75.30
2018-03-08T20:29:35.767Z,75.10
2018-03-08T20:32:03.308Z,75.00
2018-03-08T20:34:30.936Z,75.20
2018-03-08T20:36:58.492Z,75.20
2018-03-08T20:39:26.040Z,75.00
2018-03-08T20:41:53.590Z,74.90
2018-03-08T20:44:21.160Z,75.10
2018-03-08T20:46:49.459Z,75.90
2018-03-08T20:49:16.996Z,75.80
2018-03-08T20:51:45.952Z,77.00
2018-03-08T20:54:25.605Z,77.10
2018-03-08T21:03:08.856Z,77.10
2018-03-08T21:05:36.516Z,77.70
2018-03-08T21:08:04.147Z,77.90
2018-03-08T21:10:32.197Z,77.70
2018-03-08T21:13:00.496Z,78.90
2018-03-08T21:15:28.038Z,78.80
2018-03-08T21:17:55.612Z,78.30
2018-03-08T21:20:25.020Z,78.40
2018-03-08T21:22:52.564Z,78.90
2018-03-08T21:25:20.895Z,79.10
2018-03-08T21:27:48.435Z,79.10
2018-03-08T21:30:16.528Z,79.20
2018-03-08T21:32:44.168Z,79.20
2018-03-08T21:35:11.704Z,78.80
2018-03-08T21:37:39.243Z,78.70
2018-03-08T21:40:06.807Z,78.60
2018-03-08T21:42:35.121Z,78.10
2018-03-08T21:45:02.651Z,78.10
2018-03-08T21:47:31.004Z,77.70
2018-03-08T21:49:58.545Z,77.70
2018-03-08T21:52:26.077Z,77.90
2018-03-08T21:54:54.424Z,78.10
2018-03-08T21:57:22.725Z,79.50
2018-03-08T21:59:50.255Z,79.40
2018-03-08T22:02:18.576Z,78.90
2018-03-08T22:04:46.480Z,78.90
2018-03-08T22:07:16.350Z,79.00
2018-03-08T22:09:43.910Z,79.00
2018-03-08T22:12:11.597Z,79.10
2018-03-08T22:14:39.126Z,78.80
2018-03-08T22:17:07.060Z,78.40
2018-03-08T22:19:35.440Z,78.00
2018-03-08T22:22:03.754Z,77.60
2018-03-08T22:24:31.320Z,77.50
2018-03-08T22:26:58.848Z,78.00
2018-03-08T22:29:26.388Z,77.60
2018-03-08T22:31:53.955Z,77.40
2018-03-08T22:34:22.256Z,77.70
2018-03-08T22:36:49.788Z,77.40
2018-03-08T22:39:17.432Z,77.20
2018-03-08T22:41:44.961Z,76.80
2018-03-08T22:44:12.500Z,76.60
2018-03-08T22:46:40.062Z,76.20
2018-03-08T22:49:07.624Z,75.70
2018-03-08T22:51:35.163Z,76.00
2018-03-08T22:54:03.516Z,75.30
2018-03-08T22:56:31.068Z,75.20
2018-03-08T22:58:58.618Z,74.70
2018-03-08T23:04:27.439Z,73.80
2018-03-08T23:06:55.592Z,73.30
2018-03-08T23:09:23.135Z,72.70
2018-03-08T23:11:51.376Z,72.10
2018-03-08T23:14:19.708Z,72.20
2018-03-08T23:16:47.233Z,72.20
2018-03-08T23:19:16.411Z,72.40
2018-03-08T23:21:44.460Z,72.30
2018-03-08T23:24:12.031Z,72.00
2018-03-08T23:26:39.564Z,71.90
2018-03-08T23:29:07.128Z,71.60
2018-03-08T23:31:34.679Z,70.60
2018-03-08T23:34:02.212Z,70.50
2018-03-08T23:36:29.784Z,70.10
2018-03-08T23:38:57.318Z,69.60
2018-03-08T23:41:24.859Z,69.40
2018-03-08T23:43:53.815Z,69.30
2018-03-08T23:46:21.364Z,69.30
2018-03-08T23:48:48.894Z,69.10
2018-03-08T23:51:16.609Z,68.70
2018-03-08T23:53:44.140Z,68.30
2018-03-08T23:56:11.672Z,67.60
2018-03-08T23:58:39.239Z,67.20
